createdAt,value
2022-09-03T00:03:05.649Z,19.59
2022-09-03T00:08:16.067Z,19.83
2022-09-03T00:13:25.033Z,20.01
2022-09-03T00:18:32.618Z,20.03
2022-09-03T00:23:41.662Z,20.13
2022-09-03T00:28:49.122Z,20.12
2022-09-03T00:33:57.019Z,20.15
2022-09-03T00:39:01.921Z,20.17
2022-09-03T00:44:45.499Z,20.08
2022-09-03T00:50:04.421Z,20.03
2022-09-03T00:55:18.750Z,19.93
2022-09-03T01:00:22.970Z,19.73
2022-09-03T01:05:47.913Z,19.37
2022-09-03T01:10:59.125Z,19.29
2022-09-03T01:16:13.828Z,19.13
2022-09-03T01:21:38.601Z,19.04
2022-09-03T01:27:01.539Z,19.16
2022-09-03T01:32:14.039Z,18.98
2022-09-03T01:37:24.812Z,19.01
2022-09-03T01:42:40.179Z,18.99
2022-09-03T01:47:58.311Z,18.67
2022-09-03T01:53:09.835Z,18.60
2022-09-03T01:58:19.261Z,18.34
2022-09-03T02:03:25.574Z,18.36
2022-09-03T02:08:29.441Z,18.20
2022-09-03T02:13:37.635Z,18.44
2022-09-03T02:18:46.639Z,18.35
2022-09-03T02:23:50.990Z,18.17
2022-09-03T02:28:55.811Z,18.00
2022-09-03T02:34:00.904Z,17.98
2022-09-03T02:39:04.540Z,18.00
2022-09-03T02:44:14.720Z,18.18
2022-09-03T02:49:19.650Z,18.26
2022-09-03T02:54:23.096Z,18.34
2022-09-03T02:59:28.421Z,18.28
2022-09-03T03:04:33.813Z,18.39
2022-09-03T03:09:37.568Z,18.45
2022-09-03T03:14:40.993Z,18.37
2022-09-03T03:19:45.827Z,18.26
2022-09-03T03:24:50.667Z,18.26
2022-09-03T03:29:54.949Z,18.16
2022-09-03T03:34:59.763Z,17.93
2022-09-03T03:40:03.540Z,18.07
2022-09-03T03:45:08.281Z,18.06
2022-09-03T03:50:13.203Z,18.04
2022-09-03T03:55:16.869Z,18.04
2022-09-03T04:00:20.546Z,18.17
2022-09-03T04:05:25.503Z,18.51
2022-09-03T04:10:30.564Z,18.48
2022-09-03T04:15:34.096Z,18.45
2022-09-03T04:20:39.296Z,18.44
2022-09-03T04:25:42.711Z,18.35
2022-09-03T04:30:47.592Z,17.89
2022-09-03T04:35:54.103Z,17.74
2022-09-03T04:40:57.863Z,17.71
2022-09-03T04:46:02.918Z,17.81
2022-09-03T04:51:10.490Z,17.89
2022-09-03T04:56:15.437Z,17.65
2022-09-03T05:01:20.978Z,17.71
2022-09-03T05:06:26.141Z,17.42
2022-09-03T05:11:30.637Z,17.36
2022-09-03T05:16:34.446Z,17.46
2022-09-03T05:21:39.520Z,17.53
2022-09-03T05:26:42.933Z,17.39
2022-09-03T05:31:46.484Z,17.48
2022-09-03T05:36:53.140Z,17.39
2022-09-03T05:41:56.612Z,17.57
2022-09-03T05:47:00.431Z,17.63
2022-09-03T05:52:05.479Z,17.44
2022-09-03T05:57:08.952Z,17.47
2022-09-03T06:02:12.719Z,17.32
2022-09-03T06:07:19.317Z,17.03
2022-09-03T06:12:22.746Z,17.33
2022-09-03T06:17:26.190Z,17.38
2022-09-03T06:22:31.509Z,17.47
2022-09-03T06:27:35.014Z,17.42
2022-09-03T06:32:45.374Z,17.44
2022-09-03T06:37:52.227Z,17.48
2022-09-03T06:43:01.026Z,17.51
2022-09-03T06:48:05.326Z,17.48
2022-09-03T06:53:11.064Z,17.41
2022-09-03T06:58:14.544Z,17.28
2022-09-03T07:03:19.213Z,17.23
2022-09-03T07:08:24.472Z,17.31
2022-09-03T07:13:28.170Z,17.23
2022-09-03T07:18:32.181Z,17.09
2022-09-03T07:23:38.230Z,16.98
2022-09-03T07:28:43.261Z,16.98
2022-09-03T07:33:47.130Z,17.00
2022-09-03T07:38:52.569Z,17.04
2022-09-03T07:43:56.059Z,16.95
2022-09-03T07:49:02.382Z,17.00
2022-09-03T07:54:10.995Z,16.82
2022-09-03T07:59:14.765Z,16.66
2022-09-03T08:04:18.180Z,16.72
2022-09-03T08:09:23.078Z,16.51
2022-09-03T08:14:26.520Z,16.70
2022-09-03T08:19:29.975Z,16.70
2022-09-03T08:24:36.027Z,16.84
2022-09-03T08:29:39.464Z,16.67
2022-09-03T08:34:43.211Z,16.59
2022-09-03T08:39:48.223Z,16.69
2022-09-03T08:44:56.228Z,16.58
2022-09-03T08:50:03.970Z,16.76
2022-09-03T08:55:25.002Z,16.55
2022-09-03T09:00:37.131Z,16.59
2022-09-03T09:05:52.079Z,16.53
2022-09-03T09:11:05.801Z,16.71
2022-09-03T09:16:20.671Z,16.86
2022-09-03T09:21:29.444Z,16.69
2022-09-03T09:26:34.977Z,16.50
2022-09-03T09:31:39.495Z,16.55
2022-09-03T09:36:49.483Z,16.56
2022-09-03T09:42:09.588Z,16.54
2022-09-03T09:47:18.118Z,16.58
2022-09-03T09:52:25.890Z,16.48
2022-09-03T09:57:31.025Z,16.45
2022-09-03T10:02:38.271Z,16.66
2022-09-03T10:07:42.056Z,16.57
2022-09-03T10:12:52.485Z,16.60
2022-09-03T10:18:04.902Z,16.59
2022-09-03T10:23:14.932Z,16.65
2022-09-03T10:28:19.989Z,16.65
2022-09-03T10:33:28.176Z,16.45
2022-09-03T10:38:36.795Z,16.69
2022-09-03T10:44:22.770Z,16.66
2022-09-03T10:49:40.668Z,16.67
2022-09-03T10:54:59.265Z,16.60
2022-09-03T11:00:09.666Z,16.80
2022-09-03T11:05:19.021Z,16.91
2022-09-03T11:10:30.985Z,16.79
2022-09-03T11:15:41.010Z,16.68
2022-09-03T11:20:46.443Z,16.70
2022-09-03T11:25:52.705Z,16.72
2022-09-03T11:31:14.880Z,16.59
2022-09-03T11:36:30.512Z,16.63
2022-09-03T11:41:36.962Z,16.78
2022-09-03T11:46:42.387Z,16.75
2022-09-03T11:51:45.893Z,16.65
2022-09-03T11:56:50.683Z,16.47
2022-09-03T12:02:02.424Z,16.57
2022-09-03T12:07:23.507Z,16.67
2022-09-03T12:12:52.514Z,16.74
2022-09-03T12:18:20.006Z,16.85
2022-09-03T12:23:31.791Z,16.57
2022-09-03T12:28:38.871Z,16.54
2022-09-03T12:33:51.560Z,16.46
2022-09-03T12:39:12.334Z,16.36
2022-09-03T12:44:16.063Z,16.44
2022-09-03T12:49:36.487Z,16.34
2022-09-03T12:54:45.831Z,16.50
2022-09-03T12:59:59.379Z,16.41
2022-09-03T13:05:05.344Z,16.37
2022-09-03T13:10:25.007Z,16.24
2022-09-03T13:15:30.312Z,16.22
2022-09-03T13:20:48.179Z,16.35
2022-09-03T13:26:05.857Z,16.24
2022-09-03T13:31:20.114Z,16.20
2022-09-03T13:36:31.782Z,16.34
2022-09-03T13:41:41.341Z,16.34
2022-09-03T13:46:49.956Z,16.33
2022-09-03T13:52:02.790Z,16.24
2022-09-03T13:57:10.408Z,16.25
2022-09-03T14:02:25.502Z,16.10
2022-09-03T14:07:45.101Z,16.25
2022-09-03T14:12:52.196Z,16.19
2022-09-03T14:18:03.992Z,16.19
2022-09-03T14:23:21.102Z,16.28
2022-09-03T14:28:32.471Z,16.14
2022-09-03T14:33:45.980Z,16.06
2022-09-03T14:39:04.350Z,16.02
2022-09-03T14:44:37.979Z,15.92
2022-09-03T14:50:01.897Z,16.05
2022-09-03T14:55:20.570Z,15.94
2022-09-03T15:00:33.154Z,15.92
2022-09-03T15:05:56.044Z,15.91
2022-09-03T15:11:03.441Z,16.10
2022-09-03T15:16:19.876Z,15.85
2022-09-03T15:21:34.453Z,15.78
2022-09-03T15:26:58.575Z,15.64
2022-09-03T15:32:13.998Z,15.70
2022-09-03T15:37:24.508Z,15.77
2022-09-03T15:42:30.214Z,15.93
2022-09-03T15:47:50.933Z,15.99
2022-09-03T15:53:01.463Z,16.01
2022-09-03T15:58:18.956Z,15.91
2022-09-03T16:03:36.266Z,15.84
2022-09-03T16:08:44.995Z,15.67
2022-09-03T16:14:07.244Z,15.73
2022-09-03T16:19:18.515Z,15.65
2022-09-03T16:24:25.973Z,15.66
2022-09-03T16:29:33.065Z,15.47
2022-09-03T16:34:47.465Z,15.53
2022-09-03T16:39:58.600Z,15.52
2022-09-03T16:45:16.717Z,15.53
2022-09-03T16:50:32.066Z,15.44
2022-09-03T16:55:59.218Z,15.31
2022-09-03T17:01:14.580Z,15.26
2022-09-03T17:06:31.986Z,15.34
2022-09-03T17:11:49.244Z,15.32
2022-09-03T17:17:04.040Z,15.39
2022-09-03T17:22:20.254Z,15.35
2022-09-03T17:27:48.899Z,15.36
2022-09-03T17:33:33.884Z,15.44
2022-09-03T17:39:13.057Z,15.35
2022-09-03T17:44:27.286Z,15.19
2022-09-03T17:49:42.813Z,15.21
2022-09-03T17:54:50.774Z,15.25
2022-09-03T18:00:01.306Z,15.34
2022-09-03T18:05:19.578Z,15.17
2022-09-03T18:10:29.551Z,15.14
2022-09-03T18:15:38.847Z,15.23
2022-09-03T18:21:24.009Z,15.27
2022-09-03T18:26:54.580Z,15.39
2022-09-03T18:32:15.743Z,15.41
2022-09-03T18:37:42.084Z,15.37
2022-09-03T18:43:14.561Z,15.34
2022-09-03T18:48:45.171Z,15.27
2022-09-03T18:54:16.203Z,15.30
2022-09-03T18:59:56.555Z,15.20
2022-09-03T19:05:29.959Z,15.32
2022-09-03T19:11:02.548Z,15.31
2022-09-03T19:16:28.611Z,15.41
2022-09-03T19:21:59.601Z,15.34
2022-09-03T19:27:52.926Z,15.36
2022-09-03T19:33:29.879Z,15.35
2022-09-03T19:39:03.202Z,15.38
2022-09-03T19:44:49.334Z,15.35
2022-09-03T19:50:23.786Z,15.42
2022-09-03T19:55:48.889Z,15.35
2022-09-03T20:01:12.014Z,15.33
2022-09-03T20:06:33.673Z,15.44
2022-09-03T20:11:39.943Z,15.32
2022-09-03T20:16:56.021Z,15.26
2022-09-03T20:22:09.705Z,15.40
2022-09-03T20:27:28.502Z,15.28
2022-09-03T20:32:59.417Z,15.35
2022-09-03T20:38:18.980Z,15.27
2022-09-03T20:43:41.578Z,15.23
2022-09-03T20:48:56.064Z,15.17
2022-09-03T20:54:09.989Z,15.20
2022-09-03T20:59:22.181Z,15.10
2022-09-03T21:04:41.871Z,15.13
2022-09-03T21:09:53.287Z,15.12
2022-09-03T21:15:05.627Z,15.13
2022-09-03T21:20:26.149Z,15.15
2022-09-03T21:25:34.598Z,15.17
2022-09-03T21:30:41.928Z,15.08
2022-09-03T21:35:52.913Z,14.93
2022-09-03T21:41:01.344Z,15.04
2022-09-03T21:46:09.183Z,15.05
2022-09-03T21:51:18.626Z,15.22
2022-09-03T21:56:44.799Z,15.31
2022-09-03T22:01:58.254Z,15.22
2022-09-03T22:07:12.239Z,15.11
2022-09-03T22:12:21.925Z,15.19
2022-09-03T22:17:37.729Z,15.14
2022-09-03T22:22:47.944Z,15.27
2022-09-03T22:28:02.213Z,15.23
2022-09-03T22:33:11.321Z,15.40
2022-09-03T22:38:32.150Z,15.26
2022-09-03T22:43:37.985Z,15.21
2022-09-03T22:49:11.954Z,15.31
2022-09-03T22:54:31.758Z,15.24
2022-09-03T22:59:40.618Z,15.32
2022-09-03T23:04:52.352Z,15.37
2022-09-03T23:10:04.250Z,15.37
2022-09-03T23:15:11.610Z,15.19
2022-09-03T23:20:21.231Z,15.00
2022-09-03T23:25:31.606Z,15.07
2022-09-03T23:30:35.018Z,14.98
2022-09-03T23:35:48.177Z,15.04
2022-09-03T23:40:56.299Z,15.04
2022-09-03T23:46:06.711Z,15.03
2022-09-03T23:51:22.584Z,15.04
2022-09-03T23:56:53.398Z,15.03
